KECS/ECS METAR and TAF weather

Enter ICAO airport designator
Station Type Date Time Source
KECS METAR 2020/04/06 15:35 UTC NOAA

KECS 061535Z AUTO 14010KT 10SM CLR 13/00 A2974 RMK AO2


Station Type Date Time Source
KECS Decoded METAR 2020/04/06 15:35 UTC NOAA

Station name not available
Apr 06, 2020 - 11:35 AM EDT / 2020.04.06 1535 UTC
Wind: from the SE (140 degrees) at 12 MPH (10 KT):0
Visibility: 10 mile(s):0
Sky conditions: clear
Temperature: 55 F (13 C)
Dew Point: 32 F (0 C)
Relative Humidity: 40%
Pressure (altimeter): 29.74 in. Hg (1007 hPa)
ob: KECS 061535Z AUTO 14010KT 10SM CLR 13/00 A2974 RMK AO2
cycle: 15

Station Type Date Time Source
KECS TAF UTC NOAA

Error!

Example: see airport list